createdAt,value
2022-11-22T00:00:31.132Z,990.74
2022-11-22T00:01:31.137Z,990.81
2022-11-22T00:02:31.193Z,990.80
2022-11-22T00:03:31.117Z,990.84
2022-11-22T00:04:31.125Z,990.84
2022-11-22T00:05:31.096Z,990.80
2022-11-22T00:06:31.111Z,990.76
2022-11-22T00:07:31.149Z,990.78
2022-11-22T00:08:31.067Z,990.77
2022-11-22T00:09:31.249Z,990.71
2022-11-22T00:10:31.043Z,990.75
2022-11-22T00:11:31.007Z,990.62
2022-11-22T00:12:31.028Z,990.74
2022-11-22T00:13:31.019Z,990.74
2022-11-22T00:14:30.977Z,990.69
2022-11-22T00:15:30.972Z,990.74
2022-11-22T00:16:30.945Z,990.74
2022-11-22T00:17:30.932Z,990.72
2022-11-22T00:18:30.952Z,990.74
2022-11-22T00:19:31.213Z,990.76
2022-11-22T00:20:30.887Z,990.69
2022-11-22T00:21:30.878Z,990.72
2022-11-22T00:22:30.889Z,990.70
2022-11-22T00:23:30.935Z,990.71
2022-11-22T00:24:30.884Z,990.71
2022-11-22T00:25:30.882Z,990.70
2022-11-22T00:26:30.819Z,990.79
2022-11-22T00:27:30.804Z,990.76
2022-11-22T00:28:30.861Z,990.72
2022-11-22T00:29:30.941Z,990.71
2022-11-22T00:30:30.762Z,990.72
2022-11-22T00:31:30.771Z,990.72
2022-11-22T00:32:30.753Z,990.71
2022-11-22T00:33:30.762Z,990.69
2022-11-22T00:34:30.728Z,990.66
2022-11-22T00:35:30.732Z,990.67
2022-11-22T00:36:30.695Z,990.63
2022-11-22T00:37:30.706Z,990.61
2022-11-22T00:38:30.664Z,990.64
2022-11-22T00:39:31.062Z,990.68
2022-11-22T00:40:30.651Z,990.68
2022-11-22T00:41:30.664Z,990.64
2022-11-22T00:42:30.651Z,990.65
2022-11-22T00:43:30.595Z,990.67
2022-11-22T00:44:30.614Z,990.69
2022-11-22T00:45:31.256Z,990.66
2022-11-22T00:46:30.565Z,990.68
2022-11-22T00:47:30.556Z,990.65
2022-11-22T00:48:30.537Z,990.67
2022-11-22T00:49:30.811Z,990.71
2022-11-22T00:50:30.523Z,990.74
2022-11-22T00:51:30.569Z,990.69
2022-11-22T00:52:30.536Z,990.72
2022-11-22T00:53:30.496Z,990.72
2022-11-22T00:54:30.464Z,990.80
2022-11-22T00:55:30.472Z,990.81
2022-11-22T00:56:30.479Z,990.79
2022-11-22T00:57:30.455Z,990.86
2022-11-22T00:58:30.428Z,990.86
2022-11-22T00:59:30.768Z,990.80
2022-11-22T01:00:30.387Z,990.81
2022-11-22T01:01:30.423Z,990.84
2022-11-22T01:02:30.379Z,990.80
2022-11-22T01:03:30.359Z,990.79
2022-11-22T01:04:30.359Z,990.87
2022-11-22T01:05:30.341Z,990.78
2022-11-22T01:06:30.336Z,990.77
2022-11-22T01:07:30.356Z,990.79
2022-11-22T01:08:30.315Z,990.81
2022-11-22T01:09:30.472Z,990.83
2022-11-22T01:10:30.268Z,990.83
2022-11-22T01:11:30.250Z,990.83
2022-11-22T01:12:30.240Z,990.88
2022-11-22T01:13:30.236Z,990.88
2022-11-22T01:14:30.239Z,990.86
2022-11-22T01:15:30.250Z,990.87
2022-11-22T01:16:30.222Z,990.83
2022-11-22T01:17:30.167Z,990.85
2022-11-22T01:18:30.161Z,990.81
2022-11-22T01:19:30.515Z,990.85
2022-11-22T01:20:30.192Z,990.85
2022-11-22T01:21:30.147Z,990.87
2022-11-22T01:22:30.111Z,990.91
2022-11-22T01:23:30.131Z,990.90
2022-11-22T01:24:30.104Z,990.91
2022-11-22T01:25:30.109Z,990.84
2022-11-22T01:26:30.090Z,990.89
2022-11-22T01:27:30.046Z,990.91
2022-11-22T01:28:30.034Z,990.89
2022-11-22T01:29:30.357Z,990.84
2022-11-22T01:30:30.025Z,990.82
2022-11-22T01:31:30.039Z,990.83
2022-11-22T01:32:29.983Z,990.83
2022-11-22T01:33:30.038Z,990.89
2022-11-22T01:34:30.001Z,990.91
2022-11-22T01:35:29.975Z,990.91
2022-11-22T01:36:29.941Z,990.91
2022-11-22T01:37:29.934Z,990.93
2022-11-22T01:38:29.904Z,990.97
2022-11-22T01:39:30.198Z,990.95
2022-11-22T01:40:29.905Z,990.95
2022-11-22T01:41:29.885Z,990.99
2022-11-22T01:42:29.885Z,990.94
2022-11-22T01:43:29.868Z,990.93
2022-11-22T01:44:29.867Z,990.91
2022-11-22T01:45:29.827Z,990.91
2022-11-22T01:46:29.863Z,990.87
2022-11-22T01:47:29.798Z,990.87
2022-11-22T01:48:29.807Z,990.94
2022-11-22T01:49:30.190Z,990.96
2022-11-22T01:50:29.787Z,990.91
2022-11-22T01:51:29.786Z,990.92
2022-11-22T01:52:29.750Z,990.90
2022-11-22T01:53:38.934Z,990.93
2022-11-22T01:54:29.727Z,990.92
2022-11-22T01:55:29.725Z,990.91
2022-11-22T01:56:29.702Z,990.94
2022-11-22T01:57:29.715Z,990.93
2022-11-22T01:58:29.684Z,990.88
2022-11-22T01:59:29.931Z,990.92
2022-11-22T02:00:29.644Z,990.93
2022-11-22T02:01:29.674Z,990.92
2022-11-22T02:02:29.646Z,990.95
2022-11-22T02:03:29.616Z,990.97
2022-11-22T02:04:29.605Z,990.95
2022-11-22T02:05:29.595Z,990.93
2022-11-22T02:06:29.577Z,990.97
2022-11-22T02:07:29.619Z,990.97
2022-11-22T02:08:29.565Z,991.01
2022-11-22T02:09:29.811Z,991.07
2022-11-22T02:10:29.538Z,991.03
2022-11-22T02:11:33.810Z,991.09
2022-11-22T02:12:29.509Z,991.08
2022-11-22T02:13:29.502Z,991.09
2022-11-22T02:14:29.503Z,991.08
2022-11-22T02:15:29.479Z,991.11
2022-11-22T02:16:29.448Z,991.11
2022-11-22T02:17:29.450Z,991.07
2022-11-22T02:18:29.429Z,991.09
2022-11-22T02:19:29.667Z,991.09
2022-11-22T02:20:29.408Z,991.12
2022-11-22T02:21:36.930Z,991.14
2022-11-22T02:22:36.927Z,991.12
2022-11-22T02:23:29.357Z,991.11
2022-11-22T02:24:29.367Z,991.09
2022-11-22T02:25:29.336Z,991.12
2022-11-22T02:26:29.348Z,991.12
2022-11-22T02:27:29.343Z,991.09
2022-11-22T02:28:29.323Z,991.10
2022-11-22T02:29:29.444Z,991.11
2022-11-22T02:30:29.279Z,991.13
2022-11-22T02:31:29.289Z,991.19
2022-11-22T02:32:29.260Z,991.19
2022-11-22T02:33:29.249Z,991.19
2022-11-22T02:34:29.240Z,991.21
2022-11-22T02:35:29.239Z,991.22
2022-11-22T02:36:29.243Z,991.22
2022-11-22T02:37:29.191Z,991.19
2022-11-22T02:38:29.200Z,991.21
2022-11-22T02:39:29.397Z,991.26
2022-11-22T02:40:29.156Z,991.26
2022-11-22T02:41:29.141Z,991.26
2022-11-22T02:42:29.133Z,991.22
2022-11-22T02:43:29.151Z,991.23
2022-11-22T02:44:29.111Z,991.26
2022-11-22T02:45:29.086Z,991.26
2022-11-22T02:46:29.082Z,991.28
2022-11-22T02:47:29.093Z,991.36
2022-11-22T02:48:29.094Z,991.39
2022-11-22T02:49:29.299Z,991.38
2022-11-22T02:50:29.065Z,991.43
2022-11-22T02:51:29.031Z,991.46
2022-11-22T02:52:29.021Z,991.43
2022-11-22T02:53:29.029Z,991.42
2022-11-22T02:54:28.995Z,991.46
2022-11-22T02:55:28.961Z,991.44
2022-11-22T02:56:29.008Z,991.42
2022-11-22T02:57:28.991Z,991.46
2022-11-22T02:58:28.924Z,991.46
2022-11-22T02:59:29.264Z,991.47
2022-11-22T03:00:28.935Z,991.52
2022-11-22T03:01:28.993Z,991.48
2022-11-22T03:02:28.934Z,991.45
2022-11-22T03:03:28.865Z,991.51
2022-11-22T03:04:28.898Z,991.51
2022-11-22T03:05:28.868Z,991.54
2022-11-22T03:06:28.864Z,991.55
2022-11-22T03:07:28.859Z,991.56
2022-11-22T03:08:28.836Z,991.52
2022-11-22T03:09:29.271Z,991.55
2022-11-22T03:10:28.789Z,991.53
2022-11-22T03:11:28.827Z,991.55
2022-11-22T03:12:28.787Z,991.56
2022-11-22T03:13:28.746Z,991.57
2022-11-22T03:14:28.728Z,991.58
2022-11-22T03:15:28.717Z,991.56
2022-11-22T03:16:28.707Z,991.60
2022-11-22T03:17:28.697Z,991.62
2022-11-22T03:18:28.686Z,991.60
2022-11-22T03:19:29.010Z,991.59
2022-11-22T03:20:28.655Z,991.64
2022-11-22T03:21:28.655Z,991.66
2022-11-22T03:22:28.667Z,991.71
2022-11-22T03:23:28.629Z,991.68
2022-11-22T03:24:28.607Z,991.75
2022-11-22T03:25:28.609Z,991.68
2022-11-22T03:26:28.600Z,991.72
2022-11-22T03:27:28.587Z,991.72
2022-11-22T03:28:28.591Z,991.75
2022-11-22T03:29:28.914Z,991.72
2022-11-22T03:30:28.560Z,991.73
2022-11-22T03:31:28.530Z,991.71
2022-11-22T03:32:28.501Z,991.67
2022-11-22T03:33:28.520Z,991.67
2022-11-22T03:34:28.535Z,991.73
2022-11-22T03:35:28.486Z,991.78
2022-11-22T03:36:28.506Z,991.82
2022-11-22T03:37:28.461Z,991.80
2022-11-22T03:38:28.471Z,991.79
2022-11-22T03:39:28.657Z,991.80
2022-11-22T03:40:28.445Z,991.88
2022-11-22T03:41:28.411Z,991.85
2022-11-22T03:42:28.381Z,991.90
2022-11-22T03:43:28.381Z,991.92
2022-11-22T03:44:28.364Z,991.93
2022-11-22T03:45:28.373Z,991.95
2022-11-22T03:46:28.332Z,991.96
2022-11-22T03:47:28.332Z,991.97
2022-11-22T03:48:28.304Z,991.99
2022-11-22T03:49:28.759Z,992.04
2022-11-22T03:50:28.293Z,992.01
2022-11-22T03:51:28.263Z,992.03
2022-11-22T03:52:28.256Z,992.06
2022-11-22T03:53:28.251Z,991.99
2022-11-22T03:54:28.237Z,992.02
2022-11-22T03:55:28.232Z,991.98
2022-11-22T03:56:28.211Z,991.98
2022-11-22T03:57:28.265Z,992.02
2022-11-22T03:58:28.179Z,992.07
2022-11-22T03:59:28.523Z,992.07
2022-11-22T04:00:28.184Z,992.08
2022-11-22T04:01:28.185Z,992.12
2022-11-22T04:02:28.145Z,992.12
2022-11-22T04:03:28.114Z,992.15
2022-11-22T04:04:28.126Z,992.16
2022-11-22T04:06:49.051Z,992.24
2022-11-22T04:07:48.663Z,992.21
2022-11-22T04:08:48.684Z,992.26
2022-11-22T04:09:48.620Z,992.20
2022-11-22T04:10:48.550Z,992.21
2022-11-22T04:11:48.558Z,992.19
2022-11-22T04:12:48.559Z,992.18
2022-11-22T04:13:48.549Z,992.21
2022-11-22T04:14:48.501Z,992.19
2022-11-22T04:15:48.491Z,992.22
2022-11-22T04:16:48.527Z,992.25
2022-11-22T04:17:48.511Z,992.23
2022-11-22T04:18:48.490Z,992.24
2022-11-22T04:19:48.473Z,992.19
2022-11-22T04:20:48.490Z,992.19
2022-11-22T04:21:48.414Z,992.22
2022-11-22T04:22:48.417Z,992.23
2022-11-22T04:23:48.369Z,992.25
2022-11-22T04:24:48.433Z,992.24
2022-11-22T04:25:49.061Z,992.23
2022-11-22T04:26:48.401Z,992.25
2022-11-22T04:27:48.314Z,992.25
2022-11-22T04:29:08.840Z,992.26
2022-11-22T04:29:49.310Z,992.24
2022-11-22T04:30:48.312Z,992.27
2022-11-22T04:31:48.264Z,992.25
2022-11-22T04:32:48.275Z,992.30
2022-11-22T04:33:48.257Z,992.33
2022-11-22T04:34:48.268Z,992.33
2022-11-22T04:35:48.224Z,992.33
2022-11-22T04:36:48.248Z,992.34
2022-11-22T04:37:48.186Z,992.33
2022-11-22T04:38:48.214Z,992.31
2022-11-22T04:39:48.193Z,992.31
2022-11-22T04:40:48.176Z,992.33
2022-11-22T04:41:48.150Z,992.35
2022-11-22T04:42:48.207Z,992.32
2022-11-22T04:43:48.142Z,992.33
2022-11-22T04:44:48.137Z,992.33
2022-11-22T04:45:48.110Z,992.35
2022-11-22T04:46:48.071Z,992.39
2022-11-22T04:47:50.519Z,992.43
2022-11-22T04:48:48.043Z,992.41
2022-11-22T04:49:48.049Z,992.42
2022-11-22T04:50:48.048Z,992.43
2022-11-22T04:51:48.034Z,992.49
2022-11-22T04:52:48.042Z,992.51
2022-11-22T04:53:47.982Z,992.48
2022-11-22T04:54:47.962Z,992.49
2022-11-22T04:55:47.952Z,992.50
2022-11-22T04:56:47.969Z,992.47
2022-11-22T04:57:47.905Z,992.43
2022-11-22T04:58:47.911Z,992.45
2022-11-22T04:59:47.897Z,992.42
2022-11-22T05:00:47.989Z,992.49
2022-11-22T05:01:47.889Z,992.45
2022-11-22T05:02:47.931Z,992.44
2022-11-22T05:03:47.838Z,992.44
2022-11-22T05:04:50.770Z,992.42
2022-11-22T05:05:47.847Z,992.44
2022-11-22T05:06:47.837Z,992.42
2022-11-22T05:07:47.860Z,992.40
2022-11-22T05:08:47.784Z,992.40
2022-11-22T05:09:47.783Z,992.42
2022-11-22T05:10:47.780Z,992.42
2022-11-22T05:11:47.752Z,992.40
2022-11-22T05:12:47.780Z,992.45
2022-11-22T05:13:47.731Z,992.40
2022-11-22T05:14:47.715Z,992.35
2022-11-22T05:15:47.749Z,992.36
2022-11-22T05:16:47.736Z,992.36
2022-11-22T05:17:47.675Z,992.37
2022-11-22T05:18:47.686Z,992.32
2022-11-22T05:19:49.321Z,992.34
2022-11-22T05:20:47.650Z,992.37
2022-11-22T05:21:47.782Z,992.38
2022-11-22T05:22:47.685Z,992.38
2022-11-22T05:23:47.601Z,992.40
2022-11-22T05:24:47.591Z,992.37
2022-11-22T05:25:47.594Z,992.43
2022-11-22T05:26:47.574Z,992.47
2022-11-22T05:27:47.583Z,992.46
2022-11-22T05:28:47.510Z,992.43
2022-11-22T05:29:47.579Z,992.42
2022-11-22T05:30:47.489Z,992.42
2022-11-22T05:31:51.296Z,992.44
2022-11-22T05:34:41.599Z,992.53
2022-11-22T05:35:41.323Z,992.53
2022-11-22T05:36:41.652Z,992.57
2022-11-22T05:37:41.774Z,992.59
2022-11-22T05:38:41.283Z,992.54
2022-11-22T05:39:41.274Z,992.55
2022-11-22T05:40:41.257Z,992.55
2022-11-22T05:41:41.243Z,992.59
2022-11-22T05:42:41.213Z,992.57
2022-11-22T05:43:41.242Z,992.58
2022-11-22T05:44:41.170Z,992.59
2022-11-22T05:45:41.620Z,992.58
2022-11-22T05:46:41.176Z,992.60
2022-11-22T05:47:41.117Z,992.59
2022-11-22T05:48:41.142Z,992.55
2022-11-22T05:49:41.117Z,992.60
2022-11-22T05:50:41.103Z,992.58
2022-11-22T05:51:41.072Z,992.62
2022-11-22T05:52:41.047Z,992.62
2022-11-22T05:53:41.065Z,992.65
2022-11-22T05:54:41.064Z,992.68
2022-11-22T05:55:41.038Z,992.70
2022-11-22T05:56:41.043Z,992.68
2022-11-22T05:57:40.981Z,992.73
2022-11-22T05:58:40.968Z,992.67
2022-11-22T05:59:44.056Z,992.70
2022-11-22T06:00:40.956Z,992.67
2022-11-22T06:01:41.049Z,992.67
2022-11-22T06:02:41.010Z,992.71
2022-11-22T06:03:40.892Z,992.65
2022-11-22T06:04:40.899Z,992.73
2022-11-22T06:05:40.895Z,992.77
2022-11-22T06:06:40.845Z,992.78
2022-11-22T06:07:40.951Z,992.79
2022-11-22T06:08:40.925Z,992.82
2022-11-22T06:09:40.811Z,992.81
2022-11-22T06:10:40.818Z,992.83
2022-11-22T06:11:40.828Z,992.81
2022-11-22T06:12:40.790Z,992.83
2022-11-22T06:13:40.862Z,992.84
2022-11-22T06:14:43.560Z,992.86
2022-11-22T06:15:40.753Z,992.83
2022-11-22T06:16:40.727Z,992.83
2022-11-22T06:17:40.776Z,992.85
2022-11-22T06:18:40.712Z,992.85
2022-11-22T06:19:40.772Z,992.87
2022-11-22T06:20:40.707Z,992.86
2022-11-22T06:21:40.699Z,992.88
2022-11-22T06:22:40.674Z,992.88
2022-11-22T06:23:40.653Z,992.88
2022-11-22T06:24:40.625Z,992.86
2022-11-22T06:25:40.644Z,992.87
2022-11-22T06:26:40.613Z,992.85
2022-11-22T06:27:40.651Z,992.85
2022-11-22T06:28:40.570Z,992.90
2022-11-22T06:29:40.650Z,992.88
2022-11-22T06:30:40.566Z,992.91
2022-11-22T06:31:40.578Z,992.85
2022-11-22T06:32:40.542Z,992.90
2022-11-22T06:33:40.510Z,992.90
2022-11-22T06:34:40.505Z,992.85
2022-11-22T06:35:40.521Z,992.91
2022-11-22T06:36:40.456Z,992.95
2022-11-22T06:37:40.501Z,992.92
2022-11-22T06:38:40.468Z,992.92
2022-11-22T06:39:40.420Z,992.91
2022-11-22T06:40:40.445Z,992.91
2022-11-22T06:41:40.421Z,992.90
2022-11-22T06:42:40.507Z,992.91
2022-11-22T06:43:46.743Z,992.87
2022-11-22T06:44:41.431Z,992.88
2022-11-22T06:45:40.355Z,992.89
2022-11-22T06:46:40.339Z,992.88
2022-11-22T06:47:40.321Z,992.93
2022-11-22T06:48:40.311Z,992.93
2022-11-22T06:49:40.346Z,992.90
2022-11-22T06:50:40.282Z,992.93
2022-11-22T06:51:40.259Z,992.92
2022-11-22T06:52:40.263Z,992.91
2022-11-22T06:53:47.184Z,992.88
2022-11-22T06:54:41.227Z,992.94
2022-11-22T06:56:01.007Z,992.91
2022-11-22T06:56:41.229Z,992.95
2022-11-22T06:57:40.172Z,992.95
2022-11-22T06:58:40.185Z,992.93
2022-11-22T06:59:40.242Z,992.91
2022-11-22T07:00:40.165Z,992.93
2022-11-22T07:01:40.255Z,992.95
2022-11-22T07:02:40.115Z,993.03
2022-11-22T07:03:40.140Z,993.01
2022-11-22T07:04:56.058Z,993.04
2022-11-22T07:05:41.134Z,993.00
2022-11-22T07:06:40.057Z,993.03
2022-11-22T07:07:40.073Z,993.02
2022-11-22T07:08:40.075Z,993.02
2022-11-22T07:09:40.032Z,993.00
2022-11-22T07:10:40.091Z,993.01
2022-11-22T07:11:40.014Z,993.06
2022-11-22T07:12:39.997Z,993.08
2022-11-22T07:13:40.001Z,993.12
2022-11-22T07:14:39.970Z,993.13
2022-11-22T07:15:39.955Z,993.17
2022-11-22T07:16:39.962Z,993.17
2022-11-22T07:17:39.917Z,993.17
2022-11-22T07:18:39.993Z,993.12
2022-11-22T07:19:39.938Z,993.17
2022-11-22T07:20:39.915Z,993.15
2022-11-22T07:21:39.872Z,993.17
2022-11-22T07:22:39.908Z,993.20
2022-11-22T07:23:39.832Z,993.15
2022-11-22T07:24:39.852Z,993.14
2022-11-22T07:25:39.825Z,993.15
2022-11-22T07:26:39.833Z,993.14
2022-11-22T07:27:39.816Z,993.15
2022-11-22T07:28:39.787Z,993.13
2022-11-22T07:29:39.750Z,993.13
2022-11-22T07:30:43.875Z,993.14
2022-11-22T07:31:39.736Z,993.13
2022-11-22T07:32:39.777Z,993.17
2022-11-22T07:33:39.711Z,993.17
2022-11-22T07:34:39.724Z,993.15
2022-11-22T07:35:39.689Z,993.20
2022-11-22T07:36:39.692Z,993.18
2022-11-22T07:37:39.642Z,993.20
2022-11-22T07:38:39.647Z,993.16
2022-11-22T07:39:39.715Z,993.22
2022-11-22T07:40:39.622Z,993.22
2022-11-22T07:41:39.609Z,993.25
2022-11-22T07:42:39.604Z,993.27
2022-11-22T07:43:39.573Z,993.27
2022-11-22T07:44:39.573Z,993.22
2022-11-22T07:45:51.798Z,993.26
2022-11-22T07:46:39.567Z,993.30
2022-11-22T07:47:39.531Z,993.35
2022-11-22T07:48:39.510Z,993.33
2022-11-22T07:49:39.514Z,993.36
2022-11-22T07:50:39.494Z,993.37
2022-11-22T07:51:39.456Z,993.38
2022-11-22T07:52:39.471Z,993.34
2022-11-22T07:53:39.446Z,993.35
2022-11-22T07:54:39.447Z,993.35
2022-11-22T07:55:39.406Z,993.37
2022-11-22T07:58:06.384Z,993.36
2022-11-22T08:01:35.968Z,993.39
2022-11-22T08:02:35.860Z,993.35
2022-11-22T08:03:35.852Z,993.28
2022-11-22T08:04:35.847Z,993.21
2022-11-22T08:05:35.817Z,993.23
2022-11-22T08:06:35.830Z,993.21
2022-11-22T08:07:42.300Z,993.28
2022-11-22T08:08:35.775Z,993.28
2022-11-22T08:09:35.769Z,993.33
2022-11-22T08:10:35.771Z,993.30
2022-11-22T08:11:35.748Z,993.34
2022-11-22T08:12:35.747Z,993.24
2022-11-22T08:13:35.720Z,993.26
2022-11-22T08:14:35.699Z,993.24
2022-11-22T08:15:35.709Z,993.29
2022-11-22T08:16:35.668Z,993.30
2022-11-22T08:17:35.677Z,993.30
2022-11-22T08:18:35.683Z,993.34
2022-11-22T08:19:35.640Z,993.33
2022-11-22T08:20:35.670Z,993.34
2022-11-22T08:21:35.619Z,993.39
2022-11-22T08:22:35.599Z,993.45
2022-11-22T08:23:35.592Z,993.44
2022-11-22T08:24:35.612Z,993.45
2022-11-22T08:25:35.571Z,993.47
2022-11-22T08:26:35.576Z,993.50
2022-11-22T08:27:35.554Z,993.51
2022-11-22T08:28:35.530Z,993.48
2022-11-22T08:29:35.520Z,993.51
2022-11-22T08:30:35.521Z,993.40
2022-11-22T08:31:35.493Z,993.46
2022-11-22T08:32:35.483Z,993.49
2022-11-22T08:33:35.467Z,993.44
2022-11-22T08:34:35.668Z,993.43
2022-11-22T08:35:35.443Z,993.49
2022-11-22T08:36:35.443Z,993.49
2022-11-22T08:37:35.418Z,993.50
2022-11-22T08:38:35.399Z,993.49
2022-11-22T08:39:35.392Z,993.50
2022-11-22T08:40:40.704Z,993.50
2022-11-22T08:41:36.438Z,993.47
2022-11-22T08:42:35.332Z,993.46
2022-11-22T08:43:35.345Z,993.43
2022-11-22T08:44:35.343Z,993.45
2022-11-22T08:45:35.320Z,993.45
2022-11-22T08:46:35.293Z,993.47
2022-11-22T08:47:35.322Z,993.46
2022-11-22T08:48:35.278Z,993.44
2022-11-22T08:49:35.268Z,993.46
2022-11-22T08:50:35.246Z,993.47
2022-11-22T08:51:35.239Z,993.46
2022-11-22T08:52:35.427Z,993.46
2022-11-22T08:53:35.210Z,993.50
2022-11-22T08:54:37.972Z,993.52
2022-11-22T08:55:35.194Z,993.51
2022-11-22T08:56:35.177Z,993.51
2022-11-22T08:57:35.156Z,993.53
2022-11-22T08:58:35.166Z,993.53
2022-11-22T08:59:35.240Z,993.60
2022-11-22T09:00:35.128Z,993.54
2022-11-22T09:01:35.154Z,993.61
2022-11-22T09:02:35.098Z,993.59
2022-11-22T09:03:35.099Z,993.62
2022-11-22T09:04:35.100Z,993.61
2022-11-22T09:05:35.118Z,993.66
2022-11-22T09:08:36.605Z,993.65
2022-11-22T09:09:38.383Z,993.57
2022-11-22T09:10:35.009Z,993.60
2022-11-22T09:11:35.247Z,993.59
2022-11-22T09:12:34.980Z,993.59
2022-11-22T09:13:34.966Z,993.62
2022-11-22T09:14:34.954Z,993.67
2022-11-22T09:15:34.940Z,993.66
2022-11-22T09:16:34.946Z,993.65
2022-11-22T09:17:34.932Z,993.63
2022-11-22T09:18:34.901Z,993.67
2022-11-22T09:19:34.889Z,993.67
2022-11-22T09:20:34.876Z,993.70
2022-11-22T09:21:34.910Z,993.73
2022-11-22T09:22:34.849Z,993.66
2022-11-22T09:23:34.839Z,993.72
2022-11-22T09:24:34.822Z,993.76
2022-11-22T09:25:34.818Z,993.79
2022-11-22T09:26:34.804Z,993.83
2022-11-22T09:27:34.811Z,993.81
2022-11-22T09:28:34.772Z,993.83
2022-11-22T09:29:34.768Z,993.91
2022-11-22T09:30:34.749Z,993.85
2022-11-22T09:31:36.481Z,993.81
2022-11-22T09:32:45.277Z,993.85
2022-11-22T09:34:05.367Z,993.82
2022-11-22T09:34:50.303Z,993.80
2022-11-22T09:35:34.689Z,993.80
2022-11-22T09:36:34.683Z,993.79
2022-11-22T09:37:34.661Z,993.88
2022-11-22T09:38:34.672Z,993.81
2022-11-22T09:39:34.642Z,993.88
2022-11-22T09:40:34.632Z,993.88
2022-11-22T09:41:34.619Z,993.91
2022-11-22T09:42:34.608Z,993.85
2022-11-22T09:43:34.606Z,993.90
2022-11-22T09:44:34.576Z,993.89
2022-11-22T09:45:34.563Z,993.86
2022-11-22T09:46:34.543Z,993.87
2022-11-22T09:47:34.528Z,993.81
2022-11-22T09:48:34.515Z,993.79
2022-11-22T09:49:34.517Z,993.80
2022-11-22T09:50:34.499Z,993.79
2022-11-22T09:51:34.474Z,993.80
2022-11-22T09:52:34.521Z,993.81
2022-11-22T09:53:34.447Z,993.83
2022-11-22T09:54:34.455Z,993.85
2022-11-22T09:55:34.441Z,993.76
2022-11-22T09:56:34.417Z,993.79
2022-11-22T09:57:34.386Z,993.80
2022-11-22T09:58:34.384Z,993.82
2022-11-22T09:59:34.367Z,993.81
2022-11-22T10:00:34.352Z,993.72
2022-11-22T10:01:34.480Z,993.74
2022-11-22T10:02:43.464Z,993.72
2022-11-22T10:03:35.325Z,993.68
2022-11-22T10:04:34.295Z,993.72
2022-11-22T10:05:34.294Z,993.72
2022-11-22T10:06:34.268Z,993.66
2022-11-22T10:07:34.406Z,993.74
2022-11-22T10:08:34.242Z,993.70
2022-11-22T10:09:34.226Z,993.70
2022-11-22T10:10:34.214Z,993.70
2022-11-22T10:11:36.619Z,993.74
2022-11-22T10:12:34.199Z,993.74
2022-11-22T10:13:34.169Z,993.76
2022-11-22T10:14:34.164Z,993.71
2022-11-22T10:15:34.132Z,993.72
2022-11-22T10:16:34.123Z,993.72
2022-11-22T10:17:34.126Z,993.74
2022-11-22T10:18:34.106Z,993.67
2022-11-22T10:19:34.094Z,993.70
2022-11-22T10:20:34.064Z,993.72
2022-11-22T10:21:34.053Z,993.66
2022-11-22T10:22:34.055Z,993.68
2022-11-22T10:23:34.055Z,993.69
2022-11-22T10:24:34.017Z,993.71
2022-11-22T10:25:34.007Z,993.69
2022-11-22T10:26:34.027Z,993.62
2022-11-22T10:27:33.981Z,993.63
2022-11-22T10:28:33.984Z,993.62
2022-11-22T10:29:33.963Z,993.60
2022-11-22T10:30:33.934Z,993.55
2022-11-22T10:31:33.921Z,993.55
2022-11-22T10:32:33.906Z,993.54
2022-11-22T10:33:33.925Z,993.54
2022-11-22T10:34:33.878Z,993.51
2022-11-22T10:35:33.902Z,993.51
2022-11-22T10:36:33.861Z,993.46
2022-11-22T10:37:33.838Z,993.45
2022-11-22T10:38:33.825Z,993.55
2022-11-22T10:39:34.877Z,993.53
2022-11-22T10:40:33.841Z,993.59
2022-11-22T10:41:33.813Z,993.54
2022-11-22T10:42:33.797Z,993.48
2022-11-22T10:43:33.761Z,993.51
2022-11-22T10:44:33.741Z,993.47
2022-11-22T10:45:33.808Z,993.47
2022-11-22T10:46:33.708Z,993.42
2022-11-22T10:47:34.637Z,993.43
2022-11-22T10:48:33.695Z,993.49
2022-11-22T10:49:33.682Z,993.44
2022-11-22T10:50:33.662Z,993.42
2022-11-22T10:51:33.670Z,993.38
2022-11-22T10:52:33.635Z,993.32
2022-11-22T10:53:33.617Z,993.32
2022-11-22T10:54:33.596Z,993.25
2022-11-22T10:55:33.585Z,993.26
2022-11-22T10:56:33.592Z,993.26
2022-11-22T10:57:33.564Z,993.24
2022-11-22T10:58:33.555Z,993.21
2022-11-22T10:59:34.007Z,993.17
2022-11-22T11:00:33.522Z,993.20
2022-11-22T11:01:33.589Z,993.20
2022-11-22T11:02:33.490Z,993.17
2022-11-22T11:03:33.558Z,993.14
2022-11-22T11:04:33.452Z,993.15
2022-11-22T11:05:33.465Z,993.20
2022-11-22T11:06:49.795Z,993.16
2022-11-22T11:07:34.526Z,993.11
2022-11-22T11:08:54.200Z,993.13
2022-11-22T11:10:34.964Z,993.08
2022-11-22T11:11:33.391Z,993.03
2022-11-22T11:12:33.355Z,993.06
2022-11-22T11:13:33.332Z,993.05
2022-11-22T11:14:33.638Z,992.98
2022-11-22T11:15:33.315Z,992.97
2022-11-22T11:16:33.291Z,992.94
2022-11-22T11:17:33.293Z,993.03
2022-11-22T11:18:33.272Z,992.97
2022-11-22T11:19:33.258Z,993.02
2022-11-22T11:20:33.241Z,993.05
2022-11-22T11:21:33.237Z,993.00
2022-11-22T11:23:06.452Z,993.02
2022-11-22T11:23:34.223Z,992.99
2022-11-22T11:24:33.322Z,992.99
2022-11-22T11:25:33.188Z,992.95
2022-11-22T11:26:33.151Z,992.97
2022-11-22T11:27:33.136Z,992.95
2022-11-22T11:28:33.118Z,992.93
2022-11-22T11:29:37.410Z,992.90
2022-11-22T11:30:33.114Z,992.91
2022-11-22T11:31:33.097Z,992.90
2022-11-22T11:32:33.071Z,992.84
2022-11-22T11:33:33.070Z,992.89
2022-11-22T11:34:33.332Z,992.95
2022-11-22T11:35:33.032Z,992.98
2022-11-22T11:36:33.032Z,992.91
2022-11-22T11:37:32.995Z,992.91
2022-11-22T11:38:33.005Z,992.86
2022-11-22T11:39:33.033Z,992.86
2022-11-22T11:40:32.945Z,992.84
2022-11-22T11:41:32.967Z,992.89
2022-11-22T11:42:32.923Z,992.90
2022-11-22T11:43:32.912Z,992.83
2022-11-22T11:44:33.319Z,992.80
2022-11-22T11:45:32.892Z,992.87
2022-11-22T11:46:32.898Z,992.89
2022-11-22T11:47:32.856Z,992.90
2022-11-22T11:48:32.841Z,992.85
2022-11-22T11:49:33.102Z,992.89
2022-11-22T11:50:32.830Z,992.83
2022-11-22T11:51:32.826Z,992.93
2022-11-22T11:52:32.778Z,992.90
2022-11-22T11:53:32.769Z,992.92
2022-11-22T11:54:32.755Z,992.86
2022-11-22T11:55:32.747Z,993.00
2022-11-22T11:56:32.736Z,992.91
2022-11-22T11:57:32.745Z,992.86
2022-11-22T11:58:32.712Z,992.90
2022-11-22T11:59:33.056Z,992.85
2022-11-22T12:00:32.666Z,992.89
2022-11-22T12:01:38.348Z,992.89
2022-11-22T12:02:33.726Z,992.87
2022-11-22T12:03:32.638Z,992.88
2022-11-22T12:04:32.898Z,992.84
2022-11-22T12:05:32.599Z,992.87
2022-11-22T12:06:32.591Z,992.82
2022-11-22T12:07:32.639Z,992.92
2022-11-22T12:08:32.608Z,992.77
2022-11-22T12:09:32.550Z,992.75
2022-11-22T12:10:32.539Z,992.75
2022-11-22T12:11:32.514Z,992.76
2022-11-22T12:12:32.501Z,992.76
2022-11-22T12:13:32.500Z,992.75
2022-11-22T12:14:55.509Z,992.82
2022-11-22T12:15:33.461Z,992.86
2022-11-22T12:16:32.462Z,992.84
2022-11-22T12:17:32.428Z,992.86
2022-11-22T12:18:32.422Z,992.84
2022-11-22T12:19:32.431Z,992.93
2022-11-22T12:20:32.397Z,992.92
2022-11-22T12:21:32.402Z,992.91
2022-11-22T12:23:33.380Z,992.88
2022-11-22T12:24:48.825Z,992.94
2022-11-22T12:25:33.815Z,992.90
2022-11-22T12:26:32.310Z,992.83
2022-11-22T12:27:32.297Z,992.87
2022-11-22T12:28:32.287Z,992.81
2022-11-22T12:29:32.284Z,992.85
2022-11-22T12:30:32.258Z,992.80
2022-11-22T12:31:32.232Z,992.82
2022-11-22T12:32:32.226Z,992.82
2022-11-22T12:33:32.217Z,992.74
2022-11-22T12:34:32.457Z,992.71
2022-11-22T12:35:32.179Z,992.77
2022-11-22T12:36:33.045Z,992.81
2022-11-22T12:37:32.200Z,992.72
2022-11-22T12:38:32.141Z,992.74
2022-11-22T12:39:32.132Z,992.74